Flight Track Log - Related Links

Times and Time Zones

All times are in EDT time to prevent confusion due to time zone crossing. See the RPA3253 flight status page for this flight to view local times or setup timezone preferences in your user account.

Time Position Orientation Groundspeed Altitude Reporting Facility
EDT Latitude Longitude Course Direction KTS MPH feet Rate Location/Type
Mon 07:20:24 PM 42.7236 -73.8050 220° Southwest 151 174 1,400  Level Boston Center
Mon 07:21:12 PM 42.7064 -73.8472 241° Southwest 197 227 2,500 2,043 Climbing Boston Center
Mon 07:22:00 PM 42.7333 -74.2542 270° West  Level FlightAware Approximate
Mon 07:22:45 PM 42.7233 -73.9803 280° West 263 303 6,200  Level Boston Center
Mon 07:23:00 PM 42.6798 -74.3749 220° Southwest  Level FlightAware Approximate
Mon 07:23:45 PM 42.7303 -74.0853 275° West 263 303 9,300  Level Boston Center
Mon 07:24:00 PM 42.5941 -74.4713 220° Southwest  Level FlightAware Approximate
Mon 07:24:45 PM 42.7433 -74.1844 280° West 274 315 10,600  Level Boston Center
Mon 07:25:00 PM 42.5116 -74.5724 220° Southwest  Level FlightAware Approximate
Mon 07:25:45 PM 42.7372 -74.3114 266° West 309 356 13,100  Level Boston Center
Mon 07:26:45 PM 42.6775 -74.3886 224° Southwest 311 358 15,200 2,000 Climbing Boston Center
Mon 07:27:45 PM 42.5989 -74.4736 219° Southwest 324 373 17,100 2,150 Climbing Boston Center
Mon 07:28:45 PM 42.5189 -74.5189 203° Southwest 341 392 19,500 2,015 Climbing Boston Center
Mon 07:29:56 PM 42.4286 -74.5639 200° South 341 392 21,500 1,864 Climbing Boston Center
Mon 07:30:57 PM 42.3169 -74.6161 199° South 351 404 23,600 1,884 Climbing Boston Center
Mon 07:31:57 PM 42.2303 -74.6806 209° Southwest 356 410 25,300 1,650 Climbing Boston Center
Mon 07:32:57 PM 42.1475 -74.7614 216° Southwest 361 415 26,900 1,587 Climbing Boston Center
Mon 07:35:06 PM 42.0042 -74.9992 231° Southwest 377 434 30,300 1,579 Climbing New York Center
Mon 07:36:07 PM 41.9606 -75.1164 243° Southwest 364 419 31,900 1,636 Climbing New York Center
Mon 07:37:07 PM 41.9206 -75.2336 245° Southwest 358 412 33,600 1,041 Climbing New York Center
Mon 07:38:08 PM 41.8808 -75.3508 246° West 353 406 34,000 202 Climbing New York Center
Mon 07:39:06 PM 41.8364 -75.4728 244° Southwest 360 414 34,000  Level New York Center
Mon 07:40:06 PM 41.7917 -75.6061 246° West 379 436 34,000 200 Level New York Center
Mon 07:41:06 PM 41.7442 -75.7444 245° Southwest 397 457 34,400 992 Climbing New York Center
Mon 07:42:07 PM 41.6972 -75.8714 244° Southwest 403 464 36,000 787 Climbing New York Center
Mon 07:43:08 PM 41.6519 -76.0011 245° Southwest 397 457 36,000  Level New York Center
Mon 07:44:06 PM 41.6044 -76.1361 245° Southwest 397 457 36,000  Level New York Center
Mon 07:45:07 PM 41.5586 -76.2683 245° Southwest 397 457 36,000  Level New York Center
Mon 07:46:07 PM 41.5106 -76.4058 245° Southwest 397 457 36,000  Level New York Center
Mon 07:47:09 PM 41.4672 -76.5267 244° Southwest 403 464 36,000  Level New York Center
Mon 07:48:06 PM 41.4172 -76.6553 243° Southwest 403 464 36,000  Level New York Center
Mon 07:49:08 PM 41.3689 -76.7864 244° Southwest 403 464 36,000  Level New York Center
Mon 07:50:08 PM 41.3208 -76.9147 244° Southwest 398 458 36,000  Level New York Center
Mon 07:51:07 PM 41.2722 -77.0456 244° Southwest 398 458 36,000  Level New York Center
Mon 07:52:06 PM 41.2236 -77.1736 243° Southwest 398 458 36,000  Level New York Center
Mon 07:53:06 PM 41.1747 -77.3069 244° Southwest 398 458 36,000  Level New York Center
Mon 07:54:07 PM 41.1233 -77.4453 244° Southwest 393 452 36,000  Level New York Center
Mon 07:55:56 PM 41.0311 -77.6844 243° Southwest 411 473 36,000  Level Cleveland Center
Mon 07:56:56 PM 40.9822 -77.8133 243° Southwest 406 467 36,000  Level Cleveland Center
Mon 07:57:56 PM 40.9331 -77.9417 243° Southwest 401 461 36,000  Level Cleveland Center
Mon 07:58:56 PM 40.8711 -78.0622 236° Southwest 401 461 36,000  Level Cleveland Center
Mon 07:59:56 PM 40.7986 -78.1747 230° Southwest 401 461 36,000  Level Cleveland Center
Mon 08:00:56 PM 40.7258 -78.2872 230° Southwest 406 467 36,000  Level Cleveland Center
Mon 08:01:56 PM 40.6550 -78.3964 229° Southwest 406 467 36,000  Level Cleveland Center
Mon 08:02:56 PM 40.5819 -78.5081 229° Southwest 406 467 36,000  Level Cleveland Center
Mon 08:03:56 PM 40.5111 -78.6194 230° Southwest 406 467 36,000  Level Cleveland Center
Mon 08:04:56 PM 40.4419 -78.7308 231° Southwest 406 467 36,000  Level Cleveland Center
Mon 08:05:56 PM 40.3686 -78.8389 228° Southwest 406 467 36,000  Level Cleveland Center
Mon 08:06:56 PM 40.2953 -78.9497 229° Southwest 406 467 36,000  Level Cleveland Center
Mon 08:07:56 PM 40.2217 -79.0606 229° Southwest 406 467 36,000  Level Cleveland Center
Mon 08:08:56 PM 40.1481 -79.1733 230° Southwest 411 473 36,000  Level Cleveland Center
Mon 08:09:56 PM 40.0744 -79.2808 228° Southwest 411 473 36,000  Level Cleveland Center
Mon 08:10:56 PM 39.9961 -79.3797 224° Southwest 411 473 36,000  Level Cleveland Center
Mon 08:11:56 PM 39.8992 -79.4600 212° Southwest 409 471 36,000  Level Cleveland Center
Mon 08:13:41 PM 39.7356 -79.5903 211° Southwest 409 471 36,000  Level Indianapolis Center
Mon 08:14:43 PM 39.6383 -79.6683 212° Southwest 409 471 36,000  Level Indianapolis Center
Mon 08:15:44 PM 39.5411 -79.7475 212° Southwest 412 474 36,000  Level Indianapolis Center
Mon 08:16:46 PM 39.4428 -79.8258 212° Southwest 413 475 36,000  Level Indianapolis Center
Mon 08:17:47 PM 39.3450 -79.9056 212° Southwest 413 475 36,000  Level Indianapolis Center
Mon 08:18:48 PM 39.2258 -80.0000 212° Southwest 416 479 36,000  Level Indianapolis Center
Mon 08:19:50 PM 39.1275 -80.0792 212° Southwest 417 480 36,000  Level Indianapolis Center
Mon 08:20:51 PM 39.0283 -80.1572 211° Southwest 417 480 36,000  Level Indianapolis Center
Mon 08:21:53 PM 38.9300 -80.2356 212° Southwest 414 476 36,000  Level Indianapolis Center
Mon 08:22:54 PM 38.8303 -80.3144 212° Southwest 418 481 36,000  Level Indianapolis Center
Mon 08:23:56 PM 38.7300 -80.3944 212° Southwest 421 484 36,000  Level Indianapolis Center
Mon 08:24:57 PM 38.6292 -80.4728 211° Southwest 421 484 36,000  Level Indianapolis Center
Mon 08:25:59 PM 38.5303 -80.5500 211° Southwest 417 480 36,000  Level Indianapolis Center
Mon 08:27:00 PM 38.4303 -80.6278 211° Southwest 418 481 36,000  Level Indianapolis Center
Mon 08:28:02 PM 38.3286 -80.7061 211° Southwest 423 487 36,000  Level Indianapolis Center
Mon 08:29:03 PM 38.2272 -80.7850 211° Southwest 424 488 36,000  Level Indianapolis Center
Mon 08:30:04 PM 38.1064 -80.8772 211° Southwest 421 484 36,000 -98 Level Indianapolis Center
Mon 08:31:06 PM 38.0053 -80.9550 211° Southwest 422 486 35,800 -537 Descending Indianapolis Center
Mon 08:32:07 PM 37.9047 -81.0322 211° Southwest 421 484 34,900 -1,220 Descending Indianapolis Center
Mon 08:33:09 PM 37.7975 -81.1147 211° Southwest 426 490 33,300 -2,098 Descending Indianapolis Center
Mon 08:34:10 PM 37.6981 -81.1881 210° Southwest 428 493 30,600 -1,854 Descending Indianapolis Center
Mon 08:35:12 PM 37.5878 -81.2392 200° South 437 503 29,500 -1,122 Descending Indianapolis Center
Mon 08:36:13 PM 37.4742 -81.2814 196° South 440 506 28,300 -732 Descending Indianapolis Center
Mon 08:37:15 PM 37.3378 -81.3342 197° South 440 506 28,000 -146 Descending Indianapolis Center
Mon 08:38:16 PM 37.2189 -81.3797 197° South 438 504 28,000 -98 Level Indianapolis Center
Mon 08:39:18 PM 37.0989 -81.4206 195° South 443 510 27,800 -683 Descending Indianapolis Center
Mon 08:40:19 PM 36.9675 -81.4367 186° South 440 506 26,600 -1,122 Descending Indianapolis Center
Mon 08:41:21 PM 36.8486 -81.4500 185° South 439 505 25,500 -1,024 Descending Indianapolis Center
Mon 08:42:22 PM 36.7317 -81.4628 185° South 435 501 24,500 -732 Descending Indianapolis Center
Mon 08:43:24 PM 36.6178 -81.4761 185° South 427 491 24,000 -390 Descending Indianapolis Center
Mon 08:44:25 PM 36.4742 -81.4922 185° South 429 494 23,700 -341 Descending Indianapolis Center
Mon 08:45:27 PM 36.3550 -81.5058 185° South 428 493 23,300 -476 Descending Indianapolis Center
Mon 08:46:31 PM 36.2264 -81.5217 186° South 429 494 22,700 -1,403 Descending Atlanta Center
Mon 08:47:31 PM 36.1058 -81.5356 185° South 429 494 20,400 -2,200 Descending Atlanta Center
Mon 08:48:31 PM 35.9956 -81.5492 186° South 422 486 18,300 -1,750 Descending Atlanta Center
Mon 08:49:31 PM 35.8936 -81.5600 185° South 392 451 16,900 -1,400 Descending Atlanta Center
Mon 08:50:31 PM 35.8039 -81.5706 185° South 346 398 15,500 -1,707 Descending Atlanta Center
Mon 08:51:27 PM 35.7267 -81.5625 175° South 299 344 13,600 -2,200 Descending Atlanta Center
Mon 08:52:31 PM 35.6383 -81.5347 166° South 306 352 11,100 -1,258 Descending Atlanta Center
Mon 08:53:31 PM 35.5586 -81.5064 164° South 301 346 11,000 -500 Descending Atlanta Center
Mon 08:54:31 PM 35.5069 -81.4239 128° Southeast 296 341 10,100 -1,350 Descending Atlanta Center
Mon 08:55:31 PM 35.5150 -81.3189 85° East 279 321 8,300 -1,550 Descending Atlanta Center
Mon 08:56:31 PM 35.5253 -81.2164 83° East 297 342 7,000 -1,055 Descending Atlanta Center
Mon 08:57:02 PM 35.5322 -81.1653 81° East 298 343 6,700 -1,370 Descending Atlanta Center
Mon 08:58:03 PM 35.5281 -81.0736 93° East 284 327 4,900 -1,131 Descending Atlanta Center
Mon 08:59:04 PM 35.4767 -81.0142 137° Southeast 237 273 4,400 -443 Descending Atlanta Center
Mon 09:00:05 PM 35.4300 -80.9878 155° Southeast 168 193 4,000 -344 Descending Atlanta Center
Mon 09:01:06 PM 35.3797 -80.9847 177° South 164 189 3,700 -517 Descending Atlanta Center
Mon 09:02:01 PM 35.3400 -80.9783 173° South 163 188 3,000 -764 Descending Atlanta Center

Login

Don't have an account? Register now (free) for customized features, flight alerts, and more!